Time,TemperatureF,DewpointF,PressureIn,WindDirection,WindDirectionDegrees,WindSpeedMPH,WindSpeedGustMPH,Humidity,HourlyPrecipIn,Conditions,Clouds,dailyrainin,SoftwareType,DateUTC
2013-05-28 01:21:00,60.0,57.0,29.96,South,190,4.0,8.0,90,0.00,,,-99.99,,2013-05-28 08:21:00,
2013-05-28 01:32:00,60.0,57.0,29.96,South,190,4.0,8.0,90,0.00,,,-99.99,,2013-05-28 08:32:00,
2013-05-28 01:42:00,60.0,57.0,29.96,South,190,4.0,8.0,90,0.00,,,-99.99,,2013-05-28 08:42:00,
2013-05-28 02:21:00,58.0,57.0,29.95,SSW,200,5.0,9.0,95,0.00,,,-99.99,,2013-05-28 09:21:00,
2013-05-28 02:33:00,58.0,57.0,29.95,SSW,200,5.0,9.0,95,0.00,,,-99.99,,2013-05-28 09:33:00,
2013-05-28 02:42:00,58.0,57.0,29.95,SSW,200,5.0,9.0,95,0.00,,,-99.99,,2013-05-28 09:42:00,
2013-05-28 03:22:00,57.0,56.0,29.95,South,190,5.0,9.0,95,0.00,,,-99.99,,2013-05-28 10:22:00,
2013-05-28 03:32:00,57.0,56.0,29.95,South,190,5.0,9.0,95,0.00,,,-99.99,,2013-05-28 10:32:00,
2013-05-28 03:42:00,57.0,56.0,29.95,South,190,5.0,9.0,95,0.00,,,-99.99,,2013-05-28 10:42:00,
2013-05-28 04:22:00,57.0,56.0,29.94,SSW,210,3.0,7.0,95,0.00,,,-99.99,,2013-05-28 11:22:00,
2013-05-28 04:32:00,57.0,56.0,29.94,SSW,210,3.0,7.0,95,0.00,,,-99.99,,2013-05-28 11:32:00,
2013-05-28 04:42:00,57.0,56.0,29.94,SSW,210,3.0,7.0,95,0.00,,,-99.99,,2013-05-28 11:42:00,
2013-05-28 05:21:00,57.0,56.0,29.92,North,0,0.0,6.0,95,0.00,,,-99.99,,2013-05-28 12:21:00,
2013-05-28 05:31:00,57.0,56.0,29.92,North,0,0.0,6.0,95,0.00,,,-99.99,,2013-05-28 12:31:00,
2013-05-28 05:42:00,57.0,56.0,29.92,North,0,0.0,6.0,95,0.00,,,-99.99,,2013-05-28 12:42:00,
2013-05-28 06:21:00,57.0,56.0,29.92,SSW,200,3.0,5.0,95,0.00,,,-99.99,,2013-05-28 13:21:00,
2013-05-28 06:32:00,57.0,56.0,29.92,SSW,200,3.0,5.0,95,0.00,,,-99.99,,2013-05-28 13:32:00,
2013-05-28 06:42:00,57.0,56.0,29.92,SSW,200,3.0,5.0,95,0.00,,,-99.99,,2013-05-28 13:42:00,
2013-05-28 07:21:00,58.0,56.0,29.93,SW,230,1.0,7.0,94,0.00,,,-99.99,,2013-05-28 14:21:00,
2013-05-28 07:32:00,58.0,56.0,29.93,SW,230,1.0,7.0,94,0.00,,,-99.99,,2013-05-28 14:32:00,
2013-05-28 07:41:00,58.0,56.0,29.93,SW,230,1.0,7.0,94,0.00,,,-99.99,,2013-05-28 14:41:00,
2013-05-28 08:21:00,59.0,57.0,29.93,South,190,2.0,4.0,92,0.00,,,-99.99,,2013-05-28 15:21:00,
2013-05-28 08:32:00,59.0,57.0,29.93,South,190,2.0,4.0,92,0.00,,,-99.99,,2013-05-28 15:32:00,
2013-05-28 08:43:00,59.0,57.0,29.93,South,190,2.0,4.0,92,0.00,,,-99.99,,2013-05-28 15:43:00,
2013-05-28 09:22:00,60.0,57.0,29.94,SW,230,2.0,6.0,90,0.00,,,-99.99,,2013-05-28 16:22:00,
2013-05-28 09:33:00,60.0,57.0,29.94,SW,230,2.0,6.0,90,0.00,,,-99.99,,2013-05-28 16:33:00,
2013-05-28 09:42:00,60.0,57.0,29.94,SW,230,2.0,6.0,90,0.00,,,-99.99,,2013-05-28 16:42:00,
2013-05-28 10:22:00,61.0,57.0,29.93,SSE,160,5.0,7.0,88,0.00,,,-99.99,,2013-05-28 17:22:00,
2013-05-28 10:32:00,61.0,57.0,29.93,SSE,160,5.0,7.0,88,0.00,,,-99.99,,2013-05-28 17:32:00,
2013-05-28 10:41:00,61.0,57.0,29.93,SSE,160,5.0,7.0,88,0.00,,,-99.99,,2013-05-28 17:41:00,
2013-05-28 11:21:00,63.0,57.0,29.94,SW,230,2.0,9.0,82,0.00,,,-99.99,,2013-05-28 18:21:00,
2013-05-28 11:32:00,63.0,57.0,29.94,SW,230,2.0,9.0,82,0.00,,,-99.99,,2013-05-28 18:32:00,
2013-05-28 11:42:00,63.0,57.0,29.94,SW,230,2.0,9.0,82,0.00,,,-99.99,,2013-05-28 18:42:00,
2013-05-28 12:21:00,66.0,57.0,29.92,South,190,5.0,13.0,73,0.00,,,-99.99,,2013-05-28 19:21:00,
2013-05-28 12:32:00,66.0,57.0,29.92,South,190,5.0,13.0,73,0.00,,,-99.99,,2013-05-28 19:32:00,
2013-05-28 12:41:00,66.0,57.0,29.92,South,190,5.0,13.0,73,0.00,,,-99.99,,2013-05-28 19:41:00,
2013-05-28 13:22:00,71.0,58.0,29.89,SSW,200,3.0,11.0,64,0.00,,,-99.99,,2013-05-28 20:22:00,
2013-05-28 13:32:00,71.0,58.0,29.89,SSW,200,3.0,11.0,64,0.00,,,-99.99,,2013-05-28 20:32:00,
2013-05-28 13:42:00,71.0,58.0,29.89,SSW,200,3.0,11.0,64,0.00,,,-99.99,,2013-05-28 20:42:00,
2013-05-28 14:21:00,72.0,58.0,29.89,NE,40,5.0,9.0,62,0.00,,,-99.99,,2013-05-28 21:21:00,
2013-05-28 14:33:00,72.0,58.0,29.89,NE,40,5.0,9.0,62,0.00,,,-99.99,,2013-05-28 21:33:00,
2013-05-28 14:43:00,72.0,58.0,29.89,NE,40,5.0,9.0,62,0.00,,,-99.99,,2013-05-28 21:43:00,